createdAt,value
2023-11-13T00:02:11.548Z,71.00
2023-11-13T00:04:38.565Z,71.00
2023-11-13T00:07:05.616Z,70.80
2023-11-13T00:09:32.880Z,70.60
2023-11-13T00:11:59.863Z,70.40
2023-11-13T00:14:27.083Z,70.30
2023-11-13T00:16:54.064Z,70.30
2023-11-13T00:19:21.089Z,70.30
2023-11-13T00:21:48.086Z,70.30
2023-11-13T00:24:14.973Z,70.20
2023-11-13T00:26:41.935Z,70.20
2023-11-13T00:29:08.813Z,70.30
2023-11-13T00:31:36.006Z,70.30
2023-11-13T00:34:03.139Z,70.40
2023-11-13T00:36:30.009Z,70.60
2023-11-13T00:38:56.845Z,70.80
2023-11-13T00:41:23.784Z,70.90
2023-11-13T00:43:50.677Z,71.00
2023-11-13T00:46:17.645Z,71.10
2023-11-13T00:48:45.807Z,71.20
2023-11-13T00:51:15.136Z,71.30
2023-11-13T00:53:42.025Z,71.20
2023-11-13T00:56:09.262Z,71.20
2023-11-13T00:58:37.379Z,71.00
2023-11-13T01:01:08.105Z,70.90
2023-11-13T01:03:36.212Z,70.90
2023-11-13T01:06:04.111Z,71.10
2023-11-13T01:08:31.185Z,71.20
2023-11-13T01:10:58.395Z,71.30
2023-11-13T01:13:25.379Z,71.30
2023-11-13T01:15:55.149Z,71.30
2023-11-13T01:18:24.635Z,71.40
2023-11-13T01:20:51.607Z,71.30
2023-11-13T01:23:18.479Z,71.40
2023-11-13T01:25:48.818Z,71.40
2023-11-13T01:28:17.269Z,71.40
2023-11-13T01:30:44.114Z,71.40
2023-11-13T01:33:11.203Z,71.40
2023-11-13T01:35:38.125Z,71.30
2023-11-13T01:38:04.971Z,71.20
2023-11-13T01:40:32.959Z,71.30
2023-11-13T01:42:59.864Z,71.20
2023-11-13T01:45:26.806Z,71.00
2023-11-13T01:47:53.758Z,70.90
2023-11-13T01:50:20.655Z,70.80
2023-11-13T01:52:47.569Z,70.80
2023-11-13T01:55:14.848Z,70.90
2023-11-13T01:57:44.389Z,70.80
2023-11-13T02:00:12.003Z,70.90
2023-11-13T02:02:40.133Z,70.80
2023-11-13T02:05:07.384Z,70.80
2023-11-13T02:07:34.981Z,70.70
2023-11-13T02:10:02.406Z,70.80
2023-11-13T02:12:29.388Z,70.80
2023-11-13T02:14:56.338Z,70.90
2023-11-13T02:17:23.260Z,71.00
2023-11-13T02:19:50.150Z,71.10
2023-11-13T02:22:17.122Z,71.30
2023-11-13T02:24:43.986Z,71.30
2023-11-13T02:27:11.093Z,71.40
2023-11-13T02:29:38.289Z,71.30
2023-11-13T02:32:06.365Z,71.30
2023-11-13T02:34:33.376Z,71.20
2023-11-13T02:37:00.254Z,71.30
2023-11-13T02:39:27.153Z,71.40
2023-11-13T02:41:56.493Z,71.60
2023-11-13T02:44:23.452Z,71.70
2023-11-13T02:46:50.608Z,71.70
2023-11-13T02:49:17.927Z,71.70
2023-11-13T02:51:44.944Z,71.50
2023-11-13T02:54:11.827Z,71.50
2023-11-13T02:56:38.711Z,71.50
2023-11-13T02:59:05.597Z,71.30
2023-11-13T03:01:33.147Z,71.30
2023-11-13T03:04:00.177Z,71.40
2023-11-13T03:06:27.132Z,71.50
2023-11-13T03:08:54.087Z,71.60
2023-11-13T03:11:20.991Z,71.70
2023-11-13T03:13:47.956Z,71.90
2023-11-13T03:16:15.079Z,72.00
2023-11-13T03:18:41.955Z,72.00
2023-11-13T03:21:08.785Z,72.20
2023-11-13T03:23:35.699Z,72.20
2023-11-13T03:26:04.768Z,72.10
2023-11-13T03:28:32.277Z,72.30
2023-11-13T03:30:59.492Z,72.30
2023-11-13T03:33:26.617Z,72.30
2023-11-13T03:35:53.480Z,72.30
2023-11-13T03:38:20.362Z,72.20
2023-11-13T03:40:47.253Z,72.20
2023-11-13T03:43:14.217Z,72.30
2023-11-13T03:45:41.097Z,72.30
2023-11-13T03:48:08.268Z,72.30
2023-11-13T03:50:35.174Z,72.30
2023-11-13T03:53:02.033Z,72.00
2023-11-13T03:55:28.982Z,71.90
2023-11-13T03:57:55.917Z,71.90
2023-11-13T04:00:23.457Z,72.10
2023-11-13T04:02:50.564Z,72.10
2023-11-13T04:05:17.897Z,72.30
2023-11-13T04:07:45.258Z,72.40
2023-11-13T04:10:14.856Z,73.10
2023-11-13T04:12:44.727Z,72.50
2023-11-13T04:15:12.897Z,72.50
2023-11-13T04:17:40.274Z,72.60
2023-11-13T04:20:08.468Z,72.60
2023-11-13T04:22:35.718Z,72.50
2023-11-13T04:25:03.536Z,72.40
2023-11-13T04:27:30.711Z,72.90
2023-11-13T04:29:57.584Z,72.40
2023-11-13T04:32:25.398Z,72.40
2023-11-13T04:34:52.833Z,72.40
2023-11-13T04:37:22.918Z,72.40
2023-11-13T04:39:50.114Z,72.40
2023-11-13T04:42:17.018Z,72.50
2023-11-13T04:44:44.264Z,72.30
2023-11-13T04:47:11.191Z,72.40
2023-11-13T04:49:38.098Z,72.40
2023-11-13T04:52:07.509Z,72.30
2023-11-13T04:54:34.719Z,72.20
2023-11-13T04:57:02.024Z,72.00
2023-11-13T04:59:28.973Z,71.90
2023-11-13T05:01:56.078Z,71.80
2023-11-13T05:04:23.178Z,71.70
2023-11-13T05:06:50.278Z,71.70
2023-11-13T05:09:17.196Z,71.70
2023-11-13T05:11:44.146Z,71.80
2023-11-13T05:14:11.003Z,71.90
2023-11-13T05:16:39.045Z,72.00
2023-11-13T05:19:06.325Z,72.10
2023-11-13T05:21:33.495Z,72.10
2023-11-13T05:24:00.431Z,72.10
2023-11-13T05:26:27.430Z,72.10
2023-11-13T05:28:56.274Z,72.10
2023-11-13T05:31:23.282Z,72.00
2023-11-13T05:33:50.300Z,72.00
2023-11-13T05:36:17.138Z,72.00
2023-11-13T05:38:44.697Z,72.10
2023-11-13T05:41:11.999Z,72.10
2023-11-13T05:43:39.345Z,72.20
2023-11-13T05:46:06.984Z,72.30
2023-11-13T05:48:34.424Z,72.30
2023-11-13T05:51:01.693Z,72.30
2023-11-13T05:53:28.573Z,72.30
2023-11-13T05:55:57.870Z,72.20
2023-11-13T05:58:25.261Z,72.10
2023-11-13T06:00:52.548Z,72.00
2023-11-13T06:03:19.637Z,71.90
2023-11-13T06:05:46.789Z,71.80
2023-11-13T06:08:13.892Z,71.70
2023-11-13T06:10:40.941Z,71.50
2023-11-13T06:13:08.046Z,71.30
2023-11-13T06:15:37.786Z,71.40
2023-11-13T06:18:04.875Z,71.50
2023-11-13T06:20:31.743Z,71.50
2023-11-13T06:22:58.609Z,71.60
2023-11-13T06:25:25.699Z,71.60
2023-11-13T06:27:54.091Z,71.70
2023-11-13T06:30:23.716Z,71.70
2023-11-13T06:32:51.214Z,71.80
2023-11-13T06:35:18.349Z,71.90
2023-11-13T06:37:45.211Z,71.90
2023-11-13T06:40:12.712Z,72.60
2023-11-13T06:42:39.630Z,72.00
2023-11-13T06:45:06.924Z,72.00
2023-11-13T06:47:34.610Z,72.00
2023-11-13T06:50:01.878Z,72.10
2023-11-13T06:52:29.009Z,72.10
2023-11-13T06:54:59.461Z,72.10
2023-11-13T06:57:26.936Z,72.20
2023-11-13T06:59:56.501Z,72.30
2023-11-13T07:02:27.511Z,72.10
2023-11-13T07:04:55.192Z,71.80
2023-11-13T07:07:23.109Z,72.30
2023-11-13T07:09:50.081Z,71.50
2023-11-13T07:12:17.977Z,71.40
2023-11-13T07:14:44.933Z,71.30
2023-11-13T07:17:11.906Z,71.20
2023-11-13T07:19:39.753Z,71.40
2023-11-13T07:22:08.451Z,71.40
2023-11-13T07:24:37.928Z,71.30
2023-11-13T07:27:08.005Z,71.30
2023-11-13T07:29:36.460Z,71.20
2023-11-13T07:32:03.468Z,71.10
2023-11-13T07:34:30.481Z,71.20
2023-11-13T07:36:57.435Z,71.20
2023-11-13T07:39:28.941Z,71.30
2023-11-13T07:41:58.014Z,71.40
2023-11-13T07:44:25.054Z,71.50
2023-11-13T07:46:53.437Z,71.60
2023-11-13T07:49:20.513Z,71.70
2023-11-13T07:51:48.145Z,71.80
2023-11-13T07:54:15.080Z,71.90
2023-11-13T07:56:42.002Z,72.00
2023-11-13T07:59:12.805Z,72.00
2023-11-13T08:01:40.183Z,72.00
2023-11-13T08:04:09.839Z,72.00
2023-11-13T08:06:37.056Z,72.10
2023-11-13T08:09:10.146Z,72.00
2023-11-13T08:11:37.743Z,72.10
2023-11-13T08:14:04.720Z,72.10
2023-11-13T08:16:34.808Z,72.10
2023-11-13T08:19:01.798Z,72.10
2023-11-13T08:21:29.655Z,72.00
2023-11-13T08:23:56.558Z,72.00
2023-11-13T08:26:30.082Z,71.90
2023-11-13T08:28:58.849Z,71.90
2023-11-13T08:31:27.647Z,71.90
2023-11-13T08:33:56.286Z,72.20
2023-11-13T08:36:30.100Z,72.50
2023-11-13T08:38:57.093Z,72.80
2023-11-13T08:41:24.773Z,72.90
2023-11-13T08:43:51.705Z,73.00
2023-11-13T08:46:18.698Z,73.00
2023-11-13T08:48:45.750Z,72.90
2023-11-13T08:51:13.072Z,72.80
2023-11-13T08:53:40.457Z,72.80
2023-11-13T08:56:09.506Z,72.70
2023-11-13T08:58:39.627Z,72.50
2023-11-13T09:01:08.575Z,72.30
2023-11-13T09:03:36.184Z,72.40
2023-11-13T09:06:09.197Z,72.50
2023-11-13T09:08:37.915Z,72.70
2023-11-13T09:11:06.210Z,72.80
2023-11-13T09:13:33.207Z,72.90
2023-11-13T09:18:28.680Z,73.00
2023-11-13T09:20:59.517Z,73.20
2023-11-13T09:23:28.034Z,73.20
2023-11-13T09:25:55.045Z,73.10
2023-11-13T09:28:22.949Z,72.90
2023-11-13T09:30:51.047Z,72.80
2023-11-13T09:33:18.926Z,72.70
2023-11-13T09:35:47.405Z,72.70
2023-11-13T09:38:14.458Z,72.70
2023-11-13T09:40:41.832Z,72.70
2023-11-13T09:43:30.737Z,72.70
2023-11-13T09:45:58.008Z,72.70
2023-11-13T09:48:31.926Z,72.60
2023-11-13T09:50:59.560Z,72.70
2023-11-13T09:53:28.138Z,72.70
2023-11-13T09:55:55.493Z,72.60
2023-11-13T09:58:23.465Z,72.60
2023-11-13T10:00:51.925Z,73.10
2023-11-13T10:03:19.547Z,72.50
2023-11-13T10:05:47.010Z,72.50
2023-11-13T10:08:16.226Z,72.40
2023-11-13T10:10:45.357Z,72.60
2023-11-13T10:13:13.817Z,72.60
2023-11-13T10:15:46.050Z,72.70
2023-11-13T10:18:14.619Z,72.80
2023-11-13T10:20:44.242Z,72.80
2023-11-13T10:23:11.196Z,72.90
2023-11-13T10:25:52.143Z,73.00
2023-11-13T10:28:20.214Z,73.20
2023-11-13T10:30:53.762Z,73.10
2023-11-13T10:33:21.761Z,73.30
2023-11-13T10:35:52.716Z,73.20
2023-11-13T10:38:23.938Z,73.30
2023-11-13T10:40:56.600Z,73.30
2023-11-13T10:43:34.920Z,73.40
2023-11-13T10:46:02.437Z,73.50
2023-11-13T10:48:39.565Z,73.50
2023-11-13T10:51:07.715Z,73.50
2023-11-13T10:53:44.369Z,73.60
2023-11-13T10:56:11.999Z,73.60
2023-11-13T10:58:39.647Z,73.70
2023-11-13T11:01:11.839Z,73.70
2023-11-13T11:03:48.862Z,73.80
2023-11-13T11:06:23.187Z,73.80
2023-11-13T11:08:52.124Z,73.90
2023-11-13T11:11:23.284Z,73.80
2023-11-13T11:13:55.560Z,73.80
2023-11-13T11:16:34.258Z,73.80
2023-11-13T11:19:19.686Z,73.70
2023-11-13T11:22:08.468Z,73.70
2023-11-13T11:24:50.720Z,73.70
2023-11-13T11:27:42.554Z,73.70
2023-11-13T11:30:18.709Z,73.70
2023-11-13T11:33:03.740Z,73.80
2023-11-13T11:35:36.214Z,73.80
2023-11-13T11:38:28.959Z,73.90
2023-11-13T11:41:00.588Z,74.10
2023-11-13T11:43:37.607Z,74.10
2023-11-13T11:46:08.503Z,74.00
2023-11-13T11:48:39.176Z,74.00
2023-11-13T11:51:21.430Z,74.10
2023-11-13T11:54:00.144Z,74.20
2023-11-13T11:56:28.896Z,74.20
2023-11-13T11:58:57.282Z,74.20
2023-11-13T12:01:27.435Z,74.20
2023-11-13T12:03:54.654Z,74.20
2023-11-13T12:06:22.526Z,74.20
2023-11-13T12:08:50.738Z,74.10
2023-11-13T12:11:21.383Z,74.10
2023-11-13T12:13:48.435Z,74.10
2023-11-13T12:16:15.795Z,74.20
2023-11-13T12:18:43.495Z,74.20
2023-11-13T12:21:10.696Z,74.30
2023-11-13T12:23:37.713Z,74.20
2023-11-13T12:26:06.339Z,74.20
2023-11-13T12:28:34.209Z,74.20
2023-11-13T12:31:17.142Z,74.20
2023-11-13T12:33:45.631Z,74.20
2023-11-13T12:36:18.901Z,74.20
2023-11-13T12:38:49.412Z,74.20
2023-11-13T12:41:16.426Z,74.20
2023-11-13T12:43:46.382Z,74.10
2023-11-13T12:46:13.867Z,74.00
2023-11-13T12:48:43.075Z,74.10
2023-11-13T12:51:11.340Z,74.00
2023-11-13T12:53:40.052Z,74.00
2023-11-13T12:56:07.799Z,73.90
2023-11-13T12:58:36.814Z,73.90
2023-11-13T13:01:06.823Z,74.00
2023-11-13T13:03:34.141Z,74.00
2023-11-13T13:06:04.662Z,74.00
2023-11-13T13:08:33.038Z,74.00
2023-11-13T13:11:00.248Z,74.00
2023-11-13T13:13:27.365Z,74.00
2023-11-13T13:15:55.111Z,74.00
2023-11-13T13:18:24.170Z,74.10
2023-11-13T13:20:52.831Z,74.20
2023-11-13T13:23:19.654Z,74.20
2023-11-13T13:25:46.566Z,74.20
2023-11-13T13:28:14.426Z,74.20
2023-11-13T13:30:41.929Z,74.30
2023-11-13T13:33:12.793Z,74.20
2023-11-13T13:35:40.899Z,74.20
2023-11-13T13:38:08.171Z,74.20
2023-11-13T13:40:37.798Z,74.20
2023-11-13T13:43:04.821Z,74.30
2023-11-13T13:45:31.724Z,74.20
2023-11-13T13:47:58.799Z,74.30
2023-11-13T13:50:26.527Z,74.30
2023-11-13T13:52:57.918Z,74.30
2023-11-13T13:55:29.493Z,74.30
2023-11-13T13:58:02.470Z,74.30
2023-11-13T14:00:36.935Z,74.40
2023-11-13T14:03:13.190Z,74.30
2023-11-13T14:05:44.776Z,74.30
2023-11-13T14:08:17.299Z,74.30
2023-11-13T14:10:52.683Z,74.30
2023-11-13T14:13:23.915Z,74.20
2023-11-13T14:16:03.983Z,74.20
2023-11-13T14:18:37.190Z,74.20
2023-11-13T14:21:05.001Z,74.20
2023-11-13T14:23:33.018Z,74.20
2023-11-13T14:26:00.199Z,74.20
2023-11-13T14:28:27.481Z,74.30
2023-11-13T14:30:55.991Z,74.40
2023-11-13T14:33:23.907Z,74.50
2023-11-13T14:35:51.111Z,74.40
2023-11-13T14:38:18.024Z,74.50
2023-11-13T14:40:44.949Z,74.60
2023-11-13T14:43:11.932Z,74.70
2023-11-13T14:45:39.996Z,74.70
2023-11-13T14:48:07.336Z,74.80
2023-11-13T14:50:36.587Z,74.80
2023-11-13T14:53:03.825Z,74.90
2023-11-13T14:55:30.860Z,74.90
2023-11-13T14:57:58.116Z,74.90
2023-11-13T15:00:25.376Z,74.80
2023-11-13T15:02:54.290Z,74.80
2023-11-13T15:05:22.755Z,74.80
2023-11-13T15:07:50.498Z,74.80
2023-11-13T15:10:19.307Z,74.90
2023-11-13T15:12:47.554Z,74.90
2023-11-13T15:15:17.152Z,75.00
2023-11-13T15:17:46.259Z,74.90
2023-11-13T15:20:16.152Z,74.90
2023-11-13T15:23:04.418Z,74.80
2023-11-13T15:25:32.725Z,74.80
2023-11-13T15:27:59.796Z,74.80
2023-11-13T15:30:26.910Z,74.70
2023-11-13T15:32:54.843Z,74.70
2023-11-13T15:35:21.739Z,74.70
2023-11-13T15:37:48.680Z,74.70
2023-11-13T15:40:16.180Z,74.70
2023-11-13T15:42:43.467Z,74.70
2023-11-13T15:45:12.507Z,74.70
2023-11-13T15:47:40.286Z,75.00
2023-11-13T15:50:11.219Z,75.90
2023-11-13T15:52:39.113Z,75.90
2023-11-13T15:55:06.717Z,76.30
2023-11-13T15:57:33.723Z,76.30
2023-11-13T16:00:00.705Z,76.50
2023-11-13T16:02:27.610Z,76.50
2023-11-13T16:04:58.439Z,76.50
2023-11-13T16:07:25.787Z,76.70
2023-11-13T16:09:55.381Z,76.70
2023-11-13T16:12:22.601Z,76.60
2023-11-13T16:14:49.988Z,76.60
2023-11-13T16:17:17.191Z,76.50
2023-11-13T16:19:46.048Z,76.40
2023-11-13T16:22:13.585Z,76.40
2023-11-13T16:24:40.651Z,76.50
2023-11-13T16:27:08.067Z,76.40
2023-11-13T16:29:35.152Z,76.30
2023-11-13T16:32:05.079Z,76.00
2023-11-13T16:34:32.288Z,75.90
2023-11-13T16:36:59.384Z,75.80
2023-11-13T16:39:26.248Z,75.60
2023-11-13T16:41:53.151Z,75.40
2023-11-13T16:44:20.082Z,75.40
2023-11-13T16:46:46.961Z,75.30
2023-11-13T16:49:13.972Z,76.00
2023-11-13T16:51:40.900Z,75.40
2023-11-13T16:54:11.748Z,75.40
2023-11-13T16:56:44.696Z,75.50
2023-11-13T16:59:11.671Z,75.30
2023-11-13T17:01:38.713Z,75.20
2023-11-13T17:04:06.388Z,75.10
2023-11-13T17:06:33.945Z,75.00
2023-11-13T17:09:00.958Z,74.90
2023-11-13T17:11:30.123Z,74.90
2023-11-13T17:13:57.931Z,74.70
2023-11-13T17:16:25.427Z,74.70
2023-11-13T17:18:52.525Z,74.60
2023-11-13T17:21:19.699Z,74.40
2023-11-13T17:23:47.511Z,74.40
2023-11-13T17:26:14.620Z,74.30
2023-11-13T17:28:41.547Z,74.20
2023-11-13T17:31:08.802Z,74.20
2023-11-13T17:33:36.070Z,74.10
2023-11-13T17:36:04.493Z,74.00
2023-11-13T17:38:31.573Z,74.00
2023-11-13T17:41:01.710Z,73.90
2023-11-13T17:43:29.079Z,74.00
2023-11-13T17:45:58.297Z,73.90
2023-11-13T17:48:25.736Z,74.00
2023-11-13T17:50:53.411Z,74.00
2023-11-13T17:53:21.472Z,74.00
2023-11-13T17:55:48.563Z,74.00
2023-11-13T17:58:15.577Z,73.90
2023-11-13T18:00:43.771Z,73.90
2023-11-13T18:03:12.587Z,73.90
2023-11-13T18:05:40.025Z,73.80
2023-11-13T18:08:06.946Z,73.90
2023-11-13T18:10:33.890Z,73.80
2023-11-13T18:13:00.823Z,73.80
2023-11-13T18:15:28.038Z,73.80
2023-11-13T18:17:55.027Z,73.80
2023-11-13T18:20:21.914Z,73.80
2023-11-13T18:22:52.159Z,73.70
2023-11-13T18:25:19.527Z,73.70
2023-11-13T18:27:46.781Z,73.60
2023-11-13T18:30:14.673Z,73.60
2023-11-13T18:32:42.749Z,73.50
2023-11-13T18:35:10.231Z,73.40
2023-11-13T18:37:40.444Z,73.40
2023-11-13T18:40:09.771Z,73.40
2023-11-13T18:42:37.680Z,73.50
2023-11-13T18:45:06.430Z,73.50
2023-11-13T18:47:34.416Z,73.50
2023-11-13T18:50:01.533Z,73.60
2023-11-13T18:52:28.893Z,73.50
2023-11-13T18:54:56.605Z,73.40
2023-11-13T18:57:24.112Z,73.50
2023-11-13T18:59:51.114Z,73.50
2023-11-13T19:02:18.088Z,73.40
2023-11-13T19:04:45.496Z,73.30
2023-11-13T19:07:13.719Z,73.30
2023-11-13T19:09:41.343Z,73.30
2023-11-13T19:12:11.180Z,73.20
2023-11-13T19:14:38.446Z,73.20
2023-11-13T19:17:06.572Z,73.30
2023-11-13T19:19:34.315Z,73.30
2023-11-13T19:22:02.426Z,73.20
2023-11-13T19:24:31.005Z,73.30
2023-11-13T19:26:57.910Z,73.20
2023-11-13T19:29:25.063Z,73.20
2023-11-13T19:31:52.804Z,73.10
2023-11-13T19:34:20.069Z,73.10
2023-11-13T19:36:48.360Z,73.10
2023-11-13T19:39:15.837Z,73.20
2023-11-13T19:41:44.633Z,73.20
2023-11-13T19:44:12.576Z,73.10
2023-11-13T19:46:40.006Z,73.00
2023-11-13T19:49:08.936Z,72.90
2023-11-13T19:51:36.125Z,72.90
2023-11-13T19:54:04.769Z,73.00
2023-11-13T19:56:32.000Z,73.10
2023-11-13T19:58:59.335Z,73.10
2023-11-13T20:01:27.445Z,73.10
2023-11-13T20:03:54.745Z,73.10
2023-11-13T20:06:21.885Z,73.20
2023-11-13T20:08:51.504Z,73.10
2023-11-13T20:11:24.683Z,72.90
2023-11-13T20:13:52.646Z,72.80
2023-11-13T20:16:19.654Z,72.70
2023-11-13T20:18:48.280Z,72.50
2023-11-13T20:21:16.332Z,72.30
2023-11-13T20:23:43.277Z,72.10
2023-11-13T20:26:10.456Z,72.00
2023-11-13T20:28:37.536Z,71.80
2023-11-13T20:31:04.613Z,71.50
2023-11-13T20:33:32.527Z,71.30
2023-11-13T20:35:59.673Z,71.20
2023-11-13T20:38:27.704Z,71.20
2023-11-13T20:40:54.789Z,71.10
2023-11-13T20:43:21.856Z,70.80
2023-11-13T20:45:49.002Z,70.80
2023-11-13T20:48:16.199Z,71.40
2023-11-13T20:50:43.196Z,70.80
2023-11-13T20:53:10.624Z,70.70
2023-11-13T20:55:39.567Z,70.50
2023-11-13T20:58:08.819Z,70.30
2023-11-13T21:00:36.225Z,70.30
2023-11-13T21:03:03.541Z,70.30
2023-11-13T21:05:30.701Z,70.40
2023-11-13T21:07:57.694Z,70.50
2023-11-13T21:10:24.828Z,70.50
2023-11-13T21:12:51.884Z,70.60
2023-11-13T21:15:18.869Z,70.60
2023-11-13T21:17:45.943Z,70.70
2023-11-13T21:20:13.312Z,70.80
2023-11-13T21:22:45.367Z,70.80
2023-11-13T21:25:16.447Z,71.50
2023-11-13T21:27:46.614Z,70.90
2023-11-13T21:30:14.636Z,71.00
2023-11-13T21:32:41.982Z,71.00
2023-11-13T21:35:10.603Z,70.90
2023-11-13T21:37:38.385Z,70.90
2023-11-13T21:40:05.742Z,70.80
2023-11-13T21:42:34.793Z,70.60
2023-11-13T21:45:01.643Z,70.30
2023-11-13T21:47:28.570Z,70.20
2023-11-13T21:49:55.588Z,70.10
2023-11-13T21:52:24.405Z,70.00
2023-11-13T21:54:51.949Z,69.50
2023-11-13T21:57:18.835Z,69.50
2023-11-13T21:59:47.080Z,69.40
2023-11-13T22:02:19.057Z,69.20
2023-11-13T22:04:46.614Z,69.30
2023-11-13T22:07:13.512Z,69.30
2023-11-13T22:09:40.405Z,69.40
2023-11-13T22:12:08.246Z,69.40
2023-11-13T22:14:35.669Z,69.40
2023-11-13T22:17:05.193Z,69.10
2023-11-13T22:19:33.773Z,68.90
2023-11-13T22:22:00.655Z,68.60
2023-11-13T22:24:28.436Z,68.60
2023-11-13T22:26:55.415Z,68.40
2023-11-13T22:29:22.288Z,68.00
2023-11-13T22:31:49.261Z,68.20
2023-11-13T22:34:16.656Z,67.80
2023-11-13T22:36:44.252Z,67.80
2023-11-13T22:39:11.117Z,67.50
2023-11-13T22:41:38.145Z,67.30
2023-11-13T22:44:05.424Z,67.20
2023-11-13T22:46:32.615Z,67.20
2023-11-13T22:48:59.678Z,66.90
2023-11-13T22:51:26.604Z,66.50
2023-11-13T22:53:53.527Z,66.20
2023-11-13T22:56:20.474Z,66.20
2023-11-13T22:58:53.304Z,66.20
2023-11-13T23:01:21.346Z,66.20
2023-11-13T23:03:51.454Z,66.20
2023-11-13T23:06:18.801Z,66.30
2023-11-13T23:08:46.173Z,66.30
2023-11-13T23:11:13.235Z,65.90
2023-11-13T23:13:40.226Z,65.60
2023-11-13T23:16:08.246Z,65.70
2023-11-13T23:18:36.344Z,65.70
2023-11-13T23:21:06.433Z,65.30
2023-11-13T23:23:34.324Z,65.30
2023-11-13T23:26:01.378Z,65.20
2023-11-13T23:28:28.582Z,65.10
2023-11-13T23:30:56.550Z,65.10
2023-11-13T23:33:23.482Z,65.10
2023-11-13T23:35:50.326Z,65.00
2023-11-13T23:38:19.380Z,65.10
2023-11-13T23:40:49.691Z,64.90
2023-11-13T23:43:17.441Z,65.00
2023-11-13T23:45:45.243Z,65.10
2023-11-13T23:48:14.399Z,64.70
2023-11-13T23:50:41.985Z,64.70
2023-11-13T23:53:09.089Z,64.50
2023-11-13T23:55:36.850Z,64.60
2023-11-13T23:58:03.744Z,64.70
